createdAt,value
2019-03-05T00:00:51.302Z,0.00
2019-03-05T00:01:51.256Z,0.00
2019-03-05T00:02:51.234Z,0.00
2019-03-05T00:03:51.235Z,0.00
2019-03-05T00:04:51.229Z,0.00
2019-03-05T00:05:51.199Z,0.00
2019-03-05T00:06:51.180Z,0.00
2019-03-05T00:07:51.156Z,0.00
2019-03-05T00:08:51.134Z,0.00
2019-03-05T00:09:51.107Z,0.00
2019-03-05T00:10:51.104Z,0.00
2019-03-05T00:11:51.114Z,0.00
2019-03-05T00:12:51.067Z,0.00
2019-03-05T00:13:51.023Z,0.00
2019-03-05T00:14:51.059Z,0.00
2019-03-05T00:15:50.987Z,0.00
2019-03-05T00:16:50.963Z,0.00
2019-03-05T00:17:50.969Z,0.00
2019-03-05T00:18:50.943Z,0.00
2019-03-05T00:19:50.904Z,0.00
2019-03-05T00:20:50.923Z,0.00
2019-03-05T00:21:50.886Z,0.00
2019-03-05T00:22:50.867Z,0.00
2019-03-05T00:23:50.836Z,0.00
2019-03-05T00:24:50.830Z,0.00
2019-03-05T00:25:50.800Z,0.00
2019-03-05T00:26:50.796Z,0.00
2019-03-05T00:27:50.772Z,0.00
2019-03-05T00:28:50.745Z,0.00
2019-03-05T00:29:50.722Z,0.00
2019-03-05T00:30:50.705Z,0.00
2019-03-05T00:31:50.697Z,0.00
2019-03-05T00:32:50.741Z,0.00
2019-03-05T00:33:50.646Z,0.00
2019-03-05T00:34:50.641Z,0.00
2019-03-05T00:35:50.614Z,0.00
2019-03-05T00:36:50.594Z,0.00
2019-03-05T00:37:50.581Z,0.00
2019-03-05T00:38:50.580Z,0.00
2019-03-05T00:39:50.538Z,0.00
2019-03-05T00:40:50.520Z,0.00
2019-03-05T00:41:50.493Z,0.00
2019-03-05T00:42:50.473Z,0.00
2019-03-05T00:43:50.466Z,0.00
2019-03-05T00:44:50.459Z,0.00
2019-03-05T00:45:50.412Z,0.00
2019-03-05T00:46:50.377Z,0.00
2019-03-05T00:47:50.387Z,0.00
2019-03-05T00:48:50.354Z,0.00
2019-03-05T00:49:50.358Z,0.00
2019-03-05T00:50:50.350Z,0.00
2019-03-05T00:51:50.315Z,0.00
2019-03-05T00:52:50.288Z,0.00
2019-03-05T00:53:50.258Z,0.00
2019-03-05T00:54:50.236Z,0.00
2019-03-05T00:55:50.222Z,0.00
2019-03-05T00:56:50.249Z,0.00
2019-03-05T00:57:50.194Z,0.00
2019-03-05T00:58:50.154Z,0.00
2019-03-05T00:59:50.137Z,0.00
2019-03-05T01:00:50.130Z,0.00
2019-03-05T01:01:50.100Z,0.00
2019-03-05T01:02:50.104Z,0.00
2019-03-05T01:03:50.064Z,0.00
2019-03-05T01:04:50.046Z,0.00
2019-03-05T01:05:50.004Z,0.00
2019-03-05T01:06:49.998Z,0.00
2019-03-05T01:07:50.017Z,0.00
2019-03-05T01:08:49.961Z,0.00
2019-03-05T01:09:49.954Z,0.00
2019-03-05T01:10:49.920Z,0.00
2019-03-05T01:11:49.900Z,0.00
2019-03-05T01:12:49.900Z,0.00
2019-03-05T01:13:49.875Z,0.00
2019-03-05T01:14:49.832Z,0.00
2019-03-05T01:15:49.839Z,0.00
2019-03-05T01:16:49.811Z,0.00
2019-03-05T01:17:49.820Z,0.00
2019-03-05T01:18:49.833Z,0.00
2019-03-05T01:19:49.746Z,0.00
2019-03-05T01:20:49.721Z,0.00
2019-03-05T01:21:49.712Z,0.00
2019-03-05T01:22:49.690Z,0.00
2019-03-05T01:23:49.676Z,0.00
2019-03-05T01:24:49.656Z,0.00
2019-03-05T01:25:49.637Z,0.00
2019-03-05T01:26:49.614Z,0.00
2019-03-05T01:27:49.592Z,0.00
2019-03-05T01:28:49.562Z,0.00
2019-03-05T01:29:49.560Z,0.00
2019-03-05T01:30:49.530Z,0.00
2019-03-05T01:31:49.514Z,0.00
2019-03-05T01:32:49.483Z,0.00
2019-03-05T01:33:49.463Z,0.00
2019-03-05T01:34:49.595Z,0.00
2019-03-05T01:35:49.426Z,0.00
2019-03-05T01:36:49.423Z,0.00
2019-03-05T01:37:49.401Z,0.00
2019-03-05T01:38:49.396Z,0.00
2019-03-05T01:39:49.348Z,0.00
2019-03-05T01:40:49.352Z,0.00
2019-03-05T01:41:49.325Z,0.00
2019-03-05T01:42:49.286Z,0.00
2019-03-05T01:43:49.279Z,0.00
2019-03-05T01:44:49.262Z,0.00
2019-03-05T01:45:49.251Z,0.00
2019-03-05T01:46:49.211Z,0.00
2019-03-05T01:47:49.209Z,0.00
2019-03-05T01:48:49.189Z,0.00
2019-03-05T01:49:49.155Z,0.00
2019-03-05T01:50:49.157Z,0.00
2019-03-05T01:51:49.121Z,0.00
2019-03-05T01:52:49.114Z,0.00
2019-03-05T01:53:49.077Z,0.00
2019-03-05T01:54:49.078Z,0.00
2019-03-05T01:55:49.055Z,0.00
2019-03-05T01:56:49.059Z,0.00
2019-03-05T01:57:49.015Z,0.00
2019-03-05T01:58:49.022Z,0.00
2019-03-05T01:59:48.972Z,0.00
2019-03-05T02:00:48.962Z,0.00
2019-03-05T02:01:48.973Z,0.00
2019-03-05T02:02:48.923Z,0.00
2019-03-05T02:03:48.909Z,0.00
2019-03-05T02:04:48.876Z,0.00
2019-03-05T02:05:48.859Z,0.00
2019-03-05T02:06:48.870Z,0.00
2019-03-05T02:07:48.867Z,0.00
2019-03-05T02:08:48.788Z,0.00
2019-03-05T02:09:48.779Z,0.00
2019-03-05T02:10:48.768Z,0.00
2019-03-05T02:11:48.728Z,0.00
2019-03-05T02:12:48.723Z,0.00
2019-03-05T02:13:48.722Z,0.00
2019-03-05T02:14:48.684Z,0.00
2019-03-05T02:15:48.664Z,0.00
2019-03-05T02:16:48.646Z,0.00
2019-03-05T02:17:48.665Z,0.00
2019-03-05T02:18:48.609Z,0.00
2019-03-05T02:19:48.593Z,0.00
2019-03-05T02:20:48.573Z,0.00
2019-03-05T02:21:48.551Z,0.00
2019-03-05T02:22:48.562Z,0.00
2019-03-05T02:23:48.514Z,0.00
2019-03-05T02:24:48.535Z,0.00
2019-03-05T02:25:48.485Z,0.00
2019-03-05T02:26:48.450Z,0.00
2019-03-05T02:27:48.422Z,0.00
2019-03-05T02:28:48.446Z,0.00
2019-03-05T02:29:48.406Z,0.00
2019-03-05T02:30:48.389Z,0.00
2019-03-05T02:31:48.347Z,0.00
2019-03-05T02:32:48.326Z,0.00
2019-03-05T02:33:48.344Z,0.00
2019-03-05T02:34:48.311Z,0.00
2019-03-05T02:35:48.324Z,0.00
2019-03-05T02:36:48.263Z,0.00
2019-03-05T02:37:48.242Z,0.00
2019-03-05T02:38:48.230Z,0.00
2019-03-05T02:39:48.240Z,0.00
2019-03-05T02:40:48.220Z,0.00
2019-03-05T02:41:48.188Z,0.00
2019-03-05T02:42:48.154Z,0.00
2019-03-05T02:43:48.145Z,0.00
2019-03-05T02:44:48.131Z,0.00
2019-03-05T02:45:48.075Z,0.00
2019-03-05T02:46:48.061Z,0.00
2019-03-05T02:47:48.051Z,0.00
2019-03-05T02:48:48.030Z,0.00
2019-03-05T02:49:48.058Z,0.00
2019-03-05T02:50:47.993Z,0.00
2019-03-05T02:51:47.984Z,0.00
2019-03-05T02:52:47.951Z,0.00
2019-03-05T02:53:47.924Z,0.00
2019-03-05T02:54:47.954Z,0.00
2019-03-05T02:55:48.035Z,0.00
2019-03-05T02:56:47.871Z,0.00
2019-03-05T02:57:47.843Z,0.00
2019-03-05T02:58:47.851Z,0.00
2019-03-05T02:59:47.803Z,0.00
2019-03-05T03:00:47.786Z,0.00
2019-03-05T03:01:47.794Z,0.00
2019-03-05T03:02:47.764Z,0.00
2019-03-05T03:03:47.726Z,0.00
2019-03-05T03:04:47.711Z,0.00
2019-03-05T03:05:47.723Z,0.00
2019-03-05T03:06:47.722Z,0.00
2019-03-05T03:07:47.650Z,0.00
2019-03-05T03:08:47.659Z,0.00
2019-03-05T03:09:47.634Z,0.00
2019-03-05T03:10:47.611Z,0.00
2019-03-05T03:11:47.619Z,0.00
2019-03-05T03:12:47.577Z,0.00
2019-03-05T03:13:47.539Z,0.00
2019-03-05T03:14:47.519Z,0.00
2019-03-05T03:15:47.541Z,0.00
2019-03-05T03:16:47.518Z,0.00
2019-03-05T03:17:47.477Z,0.00
2019-03-05T03:18:47.458Z,0.00
2019-03-05T03:19:47.480Z,0.00
2019-03-05T03:20:47.422Z,0.00
2019-03-05T03:21:47.391Z,0.00
2019-03-05T03:22:47.372Z,0.00
2019-03-05T03:23:47.358Z,0.00
2019-03-05T03:24:47.336Z,0.00
2019-03-05T03:25:47.309Z,0.00
2019-03-05T03:26:47.295Z,0.00
2019-03-05T03:27:47.320Z,0.00
2019-03-05T03:28:47.263Z,0.00
2019-03-05T03:29:47.240Z,0.00
2019-03-05T03:30:47.227Z,0.00
2019-03-05T03:31:47.219Z,0.00
2019-03-05T03:32:47.226Z,0.00
2019-03-05T03:33:47.164Z,0.00
2019-03-05T03:34:47.145Z,0.00
2019-03-05T03:35:47.138Z,0.00
2019-03-05T03:36:47.101Z,0.00
2019-03-05T03:37:47.094Z,0.00
2019-03-05T03:38:47.090Z,0.00
2019-03-05T03:39:47.059Z,0.00
2019-03-05T03:40:47.012Z,0.00
2019-03-05T03:41:47.017Z,0.00
2019-03-05T03:42:46.977Z,0.00
2019-03-05T03:43:46.991Z,0.00
2019-03-05T03:44:46.970Z,0.00
2019-03-05T03:45:46.933Z,0.00
2019-03-05T03:46:46.913Z,0.00
2019-03-05T03:47:46.890Z,0.00
2019-03-05T03:48:46.914Z,0.00
2019-03-05T03:49:46.861Z,0.00
2019-03-05T03:50:46.823Z,0.00
2019-03-05T03:51:46.822Z,0.00
2019-03-05T03:52:46.786Z,0.00
2019-03-05T03:53:46.836Z,0.00
2019-03-05T03:54:46.742Z,0.00
2019-03-05T03:55:46.733Z,0.00
2019-03-05T03:56:46.722Z,0.00
2019-03-05T03:57:46.701Z,0.00
2019-03-05T03:58:46.684Z,0.00
2019-03-05T03:59:46.675Z,0.00
2019-03-05T04:00:46.653Z,0.00
2019-03-05T04:01:46.634Z,0.00
2019-03-05T04:02:46.611Z,0.00
2019-03-05T04:03:46.600Z,0.00
2019-03-05T04:04:46.598Z,0.00
2019-03-05T04:05:46.544Z,0.00
2019-03-05T04:06:46.531Z,0.00
2019-03-05T04:07:46.524Z,0.00
2019-03-05T04:08:46.504Z,0.00
2019-03-05T04:09:46.522Z,0.00
2019-03-05T04:10:46.461Z,0.00
2019-03-05T04:11:46.415Z,0.00
2019-03-05T04:12:46.408Z,0.00
2019-03-05T04:13:46.389Z,0.00
2019-03-05T04:14:46.358Z,0.00
2019-03-05T04:15:46.374Z,0.00
2019-03-05T04:16:46.369Z,0.00
2019-03-05T04:17:46.343Z,0.00
2019-03-05T04:18:46.301Z,0.00
2019-03-05T04:19:46.283Z,0.00
2019-03-05T04:20:46.269Z,0.00
2019-03-05T04:21:46.230Z,0.00
2019-03-05T04:22:46.232Z,0.00
2019-03-05T04:23:46.186Z,0.00
2019-03-05T04:24:46.186Z,0.00
2019-03-05T04:25:46.164Z,0.00
2019-03-05T04:26:46.150Z,0.00
2019-03-05T04:27:46.161Z,0.00
2019-03-05T04:28:46.107Z,0.00
2019-03-05T04:29:46.118Z,0.00
2019-03-05T04:30:46.074Z,0.00
2019-03-05T04:31:46.041Z,0.00
2019-03-05T04:32:46.157Z,0.00
2019-03-05T04:33:46.002Z,0.00
2019-03-05T04:34:45.988Z,0.00
2019-03-05T04:35:45.970Z,0.00
2019-03-05T04:36:45.931Z,0.00
2019-03-05T04:37:45.928Z,0.00
2019-03-05T04:38:45.921Z,0.00
2019-03-05T04:39:45.881Z,0.00
2019-03-05T04:40:45.859Z,0.00
2019-03-05T04:41:45.861Z,0.00
2019-03-05T04:42:45.835Z,0.00
2019-03-05T04:43:45.930Z,0.00
2019-03-05T04:44:45.775Z,0.00
2019-03-05T04:45:45.772Z,0.00
2019-03-05T04:46:45.749Z,0.00
2019-03-05T04:47:45.719Z,0.00
2019-03-05T04:48:45.698Z,0.00
2019-03-05T04:49:45.732Z,0.00
2019-03-05T04:50:45.703Z,0.00
2019-03-05T04:51:45.660Z,0.00
2019-03-05T04:52:45.624Z,0.00
2019-03-05T04:53:45.625Z,0.00
2019-03-05T04:54:45.606Z,0.00
2019-03-05T04:55:45.593Z,0.00
2019-03-05T04:56:45.542Z,0.00
2019-03-05T04:57:45.541Z,0.00
2019-03-05T04:58:45.523Z,0.00
2019-03-05T04:59:45.555Z,0.00
2019-03-05T05:00:45.483Z,0.00
2019-03-05T05:01:45.455Z,0.00
2019-03-05T05:02:45.445Z,0.00
2019-03-05T05:03:45.417Z,0.00
2019-03-05T05:04:45.393Z,0.00
2019-03-05T05:05:45.451Z,0.00
2019-03-05T05:06:45.372Z,0.00
2019-03-05T05:07:45.349Z,0.00
2019-03-05T05:08:45.331Z,0.00
2019-03-05T05:09:45.308Z,0.00
2019-03-05T05:10:45.288Z,0.00
2019-03-05T05:11:45.322Z,0.00
2019-03-05T05:12:45.250Z,0.00
2019-03-05T05:13:45.222Z,0.00
2019-03-05T05:14:45.205Z,0.00
2019-03-05T05:15:45.178Z,0.00
2019-03-05T05:16:45.174Z,0.00
2019-03-05T05:17:45.187Z,0.00
2019-03-05T05:18:45.111Z,0.00
2019-03-05T05:19:45.101Z,0.00
2019-03-05T05:20:45.082Z,0.00
2019-03-05T05:21:45.074Z,0.00
2019-03-05T05:22:45.071Z,0.00
2019-03-05T05:23:45.019Z,0.00
2019-03-05T05:24:44.991Z,0.00
2019-03-05T05:25:44.972Z,0.00
2019-03-05T05:26:44.955Z,0.00
2019-03-05T05:27:44.975Z,0.00
2019-03-05T05:28:44.937Z,0.00
2019-03-05T05:29:44.886Z,0.00
2019-03-05T05:30:44.885Z,0.00
2019-03-05T05:31:44.866Z,0.00
2019-03-05T05:32:44.889Z,0.00
2019-03-05T05:33:44.834Z,0.00
2019-03-05T05:34:44.811Z,0.00
2019-03-05T05:35:44.795Z,0.00
2019-03-05T05:36:44.766Z,0.00
2019-03-05T05:37:44.758Z,0.00
2019-03-05T05:38:44.741Z,0.00
2019-03-05T05:39:44.711Z,0.00
2019-03-05T05:40:44.688Z,0.00
2019-03-05T05:41:44.669Z,0.00
2019-03-05T05:42:44.642Z,4.00
2019-03-05T05:43:44.652Z,4.00
2019-03-05T05:44:44.621Z,0.00
2019-03-05T05:45:44.602Z,4.00
2019-03-05T05:46:44.581Z,4.00
2019-03-05T05:47:44.539Z,4.00
2019-03-05T05:48:44.541Z,4.00
2019-03-05T05:49:44.527Z,8.00
2019-03-05T05:50:44.647Z,8.00
2019-03-05T05:51:44.500Z,12.00
2019-03-05T05:52:44.466Z,12.00
2019-03-05T05:53:44.443Z,12.00
2019-03-05T05:54:44.402Z,16.00
2019-03-05T05:55:44.404Z,16.00
2019-03-05T05:56:44.382Z,20.00
2019-03-05T05:57:44.364Z,20.00
2019-03-05T05:58:44.325Z,20.00
2019-03-05T05:59:44.319Z,20.00
2019-03-05T06:00:44.286Z,32.00
2019-03-05T06:01:44.291Z,32.00
2019-03-05T06:02:44.257Z,44.00
2019-03-05T06:03:44.235Z,48.00
2019-03-05T06:04:44.205Z,68.00
2019-03-05T06:05:44.247Z,68.00
2019-03-05T06:06:44.191Z,84.00
2019-03-05T06:07:44.154Z,84.00
2019-03-05T06:08:44.139Z,76.00
2019-03-05T06:09:44.123Z,68.00
2019-03-05T06:10:44.115Z,72.00
2019-03-05T06:11:44.076Z,76.00
2019-03-05T06:12:44.058Z,88.00
2019-03-05T06:13:44.070Z,100.00
2019-03-05T06:14:44.026Z,96.00
2019-03-05T06:15:44.012Z,120.00
2019-03-05T06:16:43.987Z,188.00
2019-03-05T06:17:43.974Z,212.00
2019-03-05T06:18:43.944Z,248.00
2019-03-05T06:19:44.883Z,284.00
2019-03-05T06:20:43.970Z,324.00
2019-03-05T06:21:43.887Z,352.00
2019-03-05T06:22:43.856Z,332.00
2019-03-05T06:23:43.844Z,276.00
2019-03-05T06:24:43.835Z,276.00
2019-03-05T06:25:43.851Z,256.00
2019-03-05T06:26:43.798Z,308.00
2019-03-05T06:27:43.781Z,244.00
2019-03-05T06:28:43.735Z,308.00
2019-03-05T06:29:43.719Z,244.00
2019-03-05T06:30:43.725Z,244.00
2019-03-05T06:31:43.706Z,220.00
2019-03-05T06:32:43.749Z,204.00
2019-03-05T06:33:43.663Z,224.00
2019-03-05T06:34:43.621Z,304.00
2019-03-05T06:35:43.613Z,292.00
2019-03-05T06:36:43.607Z,332.00
2019-03-05T06:37:43.573Z,428.00
2019-03-05T06:38:43.555Z,432.00
2019-03-05T06:39:43.535Z,468.00
2019-03-05T06:40:43.522Z,436.00
2019-03-05T06:41:43.504Z,472.00
2019-03-05T06:42:43.477Z,384.00
2019-03-05T06:43:43.501Z,392.00
2019-03-05T06:44:43.422Z,432.00
2019-03-05T06:45:43.404Z,624.00
2019-03-05T06:46:43.436Z,684.00
2019-03-05T06:47:43.390Z,664.00
2019-03-05T06:48:43.415Z,716.00
2019-03-05T06:49:43.352Z,888.00
2019-03-05T06:50:43.321Z,696.00
2019-03-05T06:51:43.304Z,592.00
2019-03-05T06:52:43.288Z,684.00
2019-03-05T06:53:43.270Z,428.00
2019-03-05T06:54:43.262Z,568.00
2019-03-05T06:55:43.230Z,844.00
2019-03-05T06:56:43.209Z,984.00
2019-03-05T06:57:43.199Z,1064.00
2019-03-05T06:58:43.178Z,1080.00
2019-03-05T06:59:43.187Z,916.00
2019-03-05T07:00:43.136Z,760.00
2019-03-05T07:01:43.113Z,1008.00
2019-03-05T07:02:43.116Z,1288.00
2019-03-05T07:03:43.074Z,1720.00
2019-03-05T07:04:43.033Z,1380.00
2019-03-05T07:05:43.045Z,1604.00
2019-03-05T07:06:43.011Z,1204.00
2019-03-05T07:07:42.996Z,884.00
2019-03-05T07:08:42.964Z,1028.00
2019-03-05T07:09:42.935Z,908.00
2019-03-05T07:10:42.945Z,796.00
2019-03-05T07:11:42.900Z,996.00
2019-03-05T07:12:42.888Z,1132.00
2019-03-05T07:13:42.885Z,916.00
2019-03-05T07:14:42.863Z,764.00
2019-03-05T07:15:42.840Z,656.00
2019-03-05T07:16:42.813Z,920.00
2019-03-05T07:17:42.797Z,1036.00
2019-03-05T07:18:42.756Z,1088.00
2019-03-05T07:19:42.746Z,1812.00
2019-03-05T07:20:42.761Z,1856.00
2019-03-05T07:21:42.712Z,1876.00
2019-03-05T07:22:42.695Z,1868.00
2019-03-05T07:23:43.197Z,2068.00
2019-03-05T07:24:42.645Z,2328.00
2019-03-05T07:25:42.664Z,2216.00
2019-03-05T07:26:42.625Z,2424.00
2019-03-05T07:27:42.585Z,2304.00
2019-03-05T07:28:42.594Z,1800.00
2019-03-05T07:29:42.566Z,1404.00
2019-03-05T07:30:42.531Z,1668.00
2019-03-05T07:31:42.527Z,1816.00
2019-03-05T07:32:42.503Z,2264.00
2019-03-05T07:33:42.464Z,2412.00
2019-03-05T07:34:42.443Z,2512.00
2019-03-05T07:35:42.477Z,1932.00
2019-03-05T07:36:45.128Z,1964.00
2019-03-05T07:37:42.412Z,2924.00
2019-03-05T07:38:42.383Z,3620.00
2019-03-05T07:39:42.363Z,2976.00
2019-03-05T07:40:42.332Z,2668.00
2019-03-05T07:41:42.315Z,2532.00
2019-03-05T07:42:42.325Z,2204.00
2019-03-05T07:43:42.313Z,2064.00
2019-03-05T07:44:42.286Z,1996.00
2019-03-05T07:45:42.245Z,2036.00
2019-03-05T07:46:42.268Z,1836.00
2019-03-05T07:47:42.225Z,2176.00
2019-03-05T07:48:42.188Z,2536.00
2019-03-05T07:49:44.184Z,2224.00
2019-03-05T07:50:42.142Z,1984.00
2019-03-05T07:51:42.129Z,1856.00
2019-03-05T07:52:42.108Z,2768.00
2019-03-05T07:53:42.096Z,2180.00
2019-03-05T07:54:42.064Z,1652.00
2019-03-05T07:55:42.053Z,1832.00
2019-03-05T07:56:42.037Z,2020.00
2019-03-05T07:57:42.053Z,1604.00
2019-03-05T07:58:42.028Z,1120.00
2019-03-05T07:59:41.986Z,1220.00
2019-03-05T08:00:41.955Z,1088.00
2019-03-05T08:01:41.953Z,940.00
2019-03-05T08:02:41.929Z,1144.00
2019-03-05T08:03:42.060Z,876.00
2019-03-05T08:04:41.884Z,808.00
2019-03-05T08:05:41.849Z,904.00
2019-03-05T08:06:41.854Z,940.00
2019-03-05T08:07:41.825Z,1380.00
2019-03-05T08:08:41.792Z,2892.00
2019-03-05T08:09:41.791Z,3616.00
2019-03-05T08:10:41.765Z,3740.00
2019-03-05T08:11:41.779Z,2704.00
2019-03-05T08:12:41.738Z,2600.00
2019-03-05T08:13:41.702Z,3084.00
2019-03-05T08:14:41.717Z,4088.00
2019-03-05T08:15:41.680Z,4540.00
2019-03-05T08:16:41.643Z,5464.00
2019-03-05T08:17:41.633Z,4648.00
2019-03-05T08:18:41.636Z,3708.00
2019-03-05T08:19:41.585Z,3340.00
2019-03-05T08:20:41.578Z,2892.00
2019-03-05T08:21:41.553Z,2040.00
2019-03-05T08:22:41.551Z,1896.00
2019-03-05T08:23:41.504Z,1752.00
2019-03-05T08:24:41.493Z,1716.00
2019-03-05T08:25:41.518Z,1736.00
2019-03-05T08:26:41.628Z,1624.00
2019-03-05T08:27:41.443Z,1684.00
2019-03-05T08:28:41.436Z,1908.00
2019-03-05T08:29:41.398Z,2352.00
2019-03-05T08:30:41.504Z,2796.00
2019-03-05T08:31:41.346Z,2956.00
2019-03-05T08:32:41.325Z,2912.00
2019-03-05T08:33:41.328Z,3132.00
2019-03-05T08:34:41.289Z,2796.00
2019-03-05T08:35:41.293Z,2728.00
2019-03-05T08:36:41.285Z,2920.00
2019-03-05T08:37:41.245Z,3396.00
2019-03-05T08:38:41.220Z,3960.00
2019-03-05T08:39:41.204Z,4824.00
2019-03-05T08:40:41.173Z,5096.00
2019-03-05T08:41:41.196Z,5804.00
2019-03-05T08:42:41.142Z,4912.00
2019-03-05T08:43:41.114Z,6512.00
2019-03-05T08:44:50.033Z,5232.00
2019-03-05T08:45:41.079Z,4940.00
2019-03-05T08:46:41.082Z,4476.00
2019-03-05T08:47:41.054Z,3708.00
2019-03-05T08:48:41.044Z,3208.00
2019-03-05T08:49:41.120Z,3444.00
2019-03-05T08:50:40.983Z,3560.00
2019-03-05T08:51:40.990Z,4160.00
2019-03-05T08:52:40.962Z,4624.00
2019-03-05T08:53:49.217Z,4312.00
2019-03-05T08:54:40.904Z,4296.00
2019-03-05T08:55:40.906Z,4784.00
2019-03-05T08:56:40.883Z,6044.00
2019-03-05T08:57:40.852Z,6024.00
2019-03-05T08:58:40.865Z,7004.00
2019-03-05T08:59:40.834Z,7192.00
2019-03-05T09:00:40.809Z,6076.00
2019-03-05T09:01:40.828Z,5144.00
2019-03-05T09:02:48.635Z,3856.00
2019-03-05T09:03:40.743Z,3988.00
2019-03-05T09:04:40.729Z,3392.00
2019-03-05T09:05:40.707Z,2368.00
2019-03-05T09:06:40.711Z,2000.00
2019-03-05T09:07:40.676Z,2376.00
2019-03-05T09:08:40.667Z,2836.00
2019-03-05T09:09:40.653Z,4308.00
2019-03-05T09:10:40.619Z,4600.00
2019-03-05T09:11:40.603Z,5036.00
2019-03-05T09:12:40.585Z,5532.00
2019-03-05T09:13:40.559Z,4764.00
2019-03-05T09:14:40.675Z,4608.00
2019-03-05T09:15:40.522Z,4808.00
2019-03-05T09:16:40.495Z,5284.00
2019-03-05T09:17:40.461Z,5468.00
2019-03-05T09:18:40.470Z,5964.00
2019-03-05T09:19:40.428Z,5636.00
2019-03-05T09:20:40.441Z,5492.00
2019-03-05T09:21:40.543Z,7428.00
2019-03-05T09:22:40.390Z,6472.00
2019-03-05T09:23:40.370Z,7124.00
2019-03-05T09:24:40.352Z,7748.00
2019-03-05T09:25:40.330Z,7824.00
2019-03-05T09:26:50.501Z,10244.00
2019-03-05T09:27:40.317Z,6676.00
2019-03-05T09:28:40.274Z,4812.00
2019-03-05T09:29:40.257Z,4068.00
2019-03-05T09:30:40.236Z,3784.00
2019-03-05T09:31:40.247Z,4156.00
2019-03-05T09:32:40.178Z,3800.00
2019-03-05T09:33:40.160Z,3892.00
2019-03-05T09:34:40.160Z,5128.00
2019-03-05T09:35:40.133Z,6104.00
2019-03-05T09:36:50.441Z,6628.00
2019-03-05T09:37:40.087Z,6228.00
2019-03-05T09:38:40.094Z,6180.00
2019-03-05T09:39:40.062Z,5448.00
2019-03-05T09:40:40.042Z,5512.00
2019-03-05T09:41:40.073Z,5472.00
2019-03-05T09:42:40.318Z,4740.00
2019-03-05T09:43:40.020Z,4708.00
2019-03-05T09:44:39.978Z,5444.00
2019-03-05T09:45:39.959Z,6492.00
2019-03-05T09:46:39.942Z,7100.00
2019-03-05T09:47:40.042Z,9780.00
2019-03-05T09:48:39.900Z,11204.00
2019-03-05T09:49:39.870Z,11688.00
2019-03-05T09:50:39.863Z,12916.00
2019-03-05T09:51:39.826Z,12100.00
2019-03-05T09:52:39.807Z,9196.00
2019-03-05T09:53:39.803Z,12088.00
2019-03-05T09:54:39.798Z,10464.00
2019-03-05T09:55:39.797Z,12784.00
2019-03-05T09:56:39.750Z,14592.00
2019-03-05T09:57:39.716Z,14000.00
2019-03-05T09:58:39.733Z,12964.00
2019-03-05T09:59:39.686Z,10840.00
2019-03-05T10:00:39.726Z,11832.00
2019-03-05T10:01:39.664Z,14192.00
2019-03-05T10:02:39.646Z,13456.00
2019-03-05T10:03:39.627Z,15776.00
2019-03-05T10:04:39.612Z,15520.00
2019-03-05T10:05:39.612Z,13408.00
2019-03-05T10:06:39.641Z,10828.00
2019-03-05T10:07:39.564Z,14232.00
2019-03-05T10:08:39.540Z,20480.00
2019-03-05T10:09:39.520Z,17728.00
2019-03-05T10:10:39.501Z,32640.00
2019-03-05T10:11:39.512Z,24768.00
2019-03-05T10:12:39.582Z,12128.00
2019-03-05T10:13:39.440Z,11648.00
2019-03-05T10:14:39.563Z,12468.00
2019-03-05T10:15:39.388Z,10468.00
2019-03-05T10:16:39.393Z,9256.00
2019-03-05T10:17:39.389Z,7176.00
2019-03-05T10:18:39.457Z,5020.00
2019-03-05T10:19:39.366Z,4700.00
2019-03-05T10:20:39.311Z,5260.00
2019-03-05T10:21:46.252Z,7872.00
2019-03-05T10:22:39.273Z,5672.00
2019-03-05T10:23:39.271Z,3516.00
2019-03-05T10:24:39.258Z,4260.00
2019-03-05T10:25:39.229Z,4780.00
2019-03-05T10:26:39.211Z,6872.00
2019-03-05T10:27:39.205Z,6932.00
2019-03-05T10:28:39.193Z,7428.00
2019-03-05T10:29:39.163Z,8704.00
2019-03-05T10:30:39.143Z,20032.00
2019-03-05T10:31:39.120Z,16032.00
2019-03-05T10:32:39.101Z,13392.00
2019-03-05T10:33:39.097Z,8208.00
2019-03-05T10:34:39.650Z,19360.00
2019-03-05T10:35:39.338Z,13516.00
2019-03-05T10:36:39.036Z,14288.00
2019-03-05T10:37:39.014Z,12616.00
2019-03-05T10:38:39.013Z,10656.00
2019-03-05T10:39:38.975Z,12556.00
2019-03-05T10:40:38.946Z,13084.00
2019-03-05T10:41:38.945Z,13932.00
2019-03-05T10:42:41.172Z,11000.00
2019-03-05T10:43:38.929Z,6484.00
2019-03-05T10:44:38.871Z,5396.00
2019-03-05T10:45:38.859Z,5664.00
2019-03-05T10:46:38.893Z,5988.00
2019-03-05T10:47:38.826Z,6076.00
2019-03-05T10:48:38.964Z,5456.00
2019-03-05T10:49:38.786Z,5524.00
2019-03-05T10:50:38.763Z,6568.00
2019-03-05T10:51:38.979Z,9640.00
2019-03-05T10:52:38.720Z,14032.00
2019-03-05T10:53:38.756Z,11352.00
2019-03-05T10:54:38.685Z,6948.00
2019-03-05T10:55:38.698Z,5352.00
2019-03-05T10:56:38.708Z,5368.00
2019-03-05T10:57:38.638Z,4656.00
2019-03-05T10:58:38.637Z,4316.00
2019-03-05T10:59:38.614Z,4728.00
2019-03-05T11:00:38.597Z,4712.00
2019-03-05T11:01:38.588Z,4796.00
2019-03-05T11:02:38.564Z,6932.00
2019-03-05T11:03:38.517Z,8084.00
2019-03-05T11:04:45.730Z,10028.00
2019-03-05T11:05:38.561Z,17312.00
2019-03-05T11:06:38.487Z,12488.00
2019-03-05T11:07:38.454Z,18048.00
2019-03-05T11:08:38.458Z,17600.00
2019-03-05T11:09:38.419Z,20576.00
2019-03-05T11:10:41.022Z,32448.00
2019-03-05T11:11:38.400Z,48896.00
2019-03-05T11:12:38.362Z,64640.00
2019-03-05T11:13:38.349Z,9832.00
2019-03-05T11:14:38.338Z,11004.00
2019-03-05T11:15:38.297Z,16288.00
2019-03-05T11:16:38.283Z,18048.00
2019-03-05T11:17:38.277Z,19968.00
2019-03-05T11:18:38.281Z,20512.00
2019-03-05T11:19:38.226Z,18688.00
2019-03-05T11:20:38.227Z,18304.00
2019-03-05T11:21:38.195Z,16864.00
2019-03-05T11:22:38.183Z,14488.00
2019-03-05T11:23:38.155Z,20832.00
2019-03-05T11:24:38.140Z,13076.00
2019-03-05T11:25:38.137Z,12416.00
2019-03-05T11:26:38.109Z,10628.00
2019-03-05T11:27:38.090Z,11112.00
2019-03-05T11:28:38.080Z,13204.00
2019-03-05T11:29:38.067Z,16640.00
2019-03-05T11:30:38.032Z,19328.00
2019-03-05T11:31:38.024Z,19968.00
2019-03-05T11:32:38.225Z,25024.00
2019-03-05T11:33:37.999Z,17248.00
2019-03-05T11:34:37.972Z,14128.00
2019-03-05T11:35:37.951Z,12888.00
2019-03-05T11:36:37.968Z,15776.00
2019-03-05T11:37:37.923Z,12148.00
2019-03-05T11:38:37.913Z,14984.00
2019-03-05T11:39:37.886Z,14740.00
2019-03-05T11:40:37.869Z,14420.00
2019-03-05T11:41:37.841Z,37952.00
2019-03-05T11:42:37.857Z,13148.00
2019-03-05T11:43:37.841Z,11108.00
2019-03-05T11:44:37.801Z,11868.00
2019-03-05T11:45:37.783Z,9868.00
2019-03-05T11:46:37.765Z,9184.00
2019-03-05T11:47:37.738Z,10700.00
2019-03-05T11:48:37.740Z,10724.00
2019-03-05T11:49:37.706Z,12160.00
2019-03-05T11:50:37.700Z,13880.00
2019-03-05T11:51:37.689Z,13136.00
2019-03-05T11:52:37.647Z,11476.00
2019-03-05T11:53:37.636Z,12492.00
2019-03-05T11:54:37.615Z,10804.00
2019-03-05T11:55:37.626Z,8548.00
2019-03-05T11:56:37.592Z,6016.00
2019-03-05T11:57:37.567Z,5244.00
2019-03-05T11:58:37.556Z,5136.00
2019-03-05T11:59:37.542Z,6448.00
2019-03-05T12:00:37.485Z,8904.00
2019-03-05T12:01:37.483Z,8920.00
2019-03-05T12:02:37.473Z,6852.00
2019-03-05T12:03:37.440Z,7008.00
2019-03-05T12:04:37.438Z,6772.00
2019-03-05T12:05:37.696Z,7924.00
2019-03-05T12:06:37.395Z,7740.00
2019-03-05T12:07:37.379Z,6720.00
2019-03-05T12:08:37.362Z,5640.00
2019-03-05T12:09:37.336Z,5752.00
2019-03-05T12:10:37.346Z,6928.00
2019-03-05T12:11:37.312Z,8888.00
2019-03-05T12:12:37.277Z,10492.00
2019-03-05T12:13:37.308Z,12048.00
2019-03-05T12:14:37.253Z,13432.00
2019-03-05T12:15:37.232Z,12848.00
2019-03-05T12:16:37.213Z,12328.00
2019-03-05T12:17:37.234Z,12060.00
2019-03-05T12:18:37.185Z,10788.00
2019-03-05T12:19:37.197Z,10196.00
2019-03-05T12:20:37.200Z,10616.00
2019-03-05T12:21:37.107Z,10588.00
2019-03-05T12:22:37.107Z,9700.00
2019-03-05T12:23:37.152Z,9072.00
2019-03-05T12:24:37.050Z,8260.00
2019-03-05T12:25:39.831Z,7576.00
2019-03-05T12:26:37.037Z,7592.00
2019-03-05T12:27:37.019Z,7296.00
2019-03-05T12:28:36.976Z,7392.00
2019-03-05T12:29:37.001Z,7640.00
2019-03-05T12:30:36.942Z,10840.00
2019-03-05T12:31:36.990Z,8852.00
2019-03-05T12:32:36.926Z,9616.00
2019-03-05T12:33:36.951Z,11756.00
2019-03-05T12:34:36.925Z,13108.00
2019-03-05T12:35:36.856Z,12216.00
2019-03-05T12:36:36.861Z,13988.00
2019-03-05T12:37:36.814Z,15840.00